Time;durP1;ratioP1;P1;durP2;ratioP2;P2;SDS_P1;SDS_P2;PMS_P1;PMS_P2;Temp;Humidity;BMP_temperature;BMP_pressure;BME280_temperature;BME280_humidity;BME280_pressure;Samples;Min_cycle;Max_cycle;Signal;HPM_P1;HPM_P2
2022/04/09 00:00:47;;;;;;;8.20;2.20;;;7.30;99.90;;;;;;5093672;28;20164;-75
2022/04/09 00:03:13;;;;;;;5.60;2.10;;;7.30;99.90;;;;;;5095057;28;20623;-75
2022/04/09 00:05:39;;;;;;;6.20;1.93;;;7.30;99.90;;;;;;5094981;28;20241;-75
2022/04/09 00:08:05;;;;;;;3.90;2.43;;;7.30;99.90;;;;;;5094698;28;20183;-75
2022/04/09 00:10:31;;;;;;;7.40;3.00;;;7.30;99.90;;;;;;5094871;28;20920;-75
2022/04/09 00:12:57;;;;;;;5.80;2.33;;;7.30;99.90;;;;;;5094768;28;20613;-75
2022/04/09 00:15:22;;;;;;;4.20;2.10;;;7.30;99.90;;;;;;5094845;28;20176;-75
2022/04/09 00:17:48;;;;;;;10.93;3.77;;;7.30;99.90;;;;;;5093278;28;20218;-75
2022/04/09 00:20:17;;;;;;;10.40;3.30;;;7.30;99.90;;;;;;5094687;28;20601;-74
2022/04/09 00:22:44;;;;;;;5.20;3.28;;;7.40;99.90;;;;;;5094323;28;20196;-74
2022/04/09 00:25:21;;;;;;;9.95;3.15;;;7.40;99.90;;;;;;5094696;28;20171;-75
2022/04/09 00:27:47;;;;;;;9.30;3.10;;;7.40;99.90;;;;;;5094241;28;20198;-74
2022/04/09 00:30:13;;;;;;;5.97;3.22;;;7.40;99.90;;;;;;5094403;28;20168;-75
2022/04/09 00:32:39;;;;;;;7.73;3.23;;;7.40;99.90;;;;;;5093187;28;20206;-75
2022/04/09 00:35:05;;;;;;;8.00;4.03;;;7.40;99.90;;;;;;5094341;28;20566;-75
2022/04/09 00:37:32;;;;;;;10.43;3.00;;;7.40;99.90;;;;;;5092922;28;20577;-75
2022/04/09 00:39:57;;;;;;;7.80;2.47;;;7.40;99.90;;;;;;5094214;28;20160;-75
2022/04/09 00:42:24;;;;;;;6.18;2.10;;;7.50;99.90;;;;;;5092610;28;20191;-75
2022/04/09 00:44:50;;;;;;;7.03;1.97;;;7.50;99.90;;;;;;5094227;28;20168;-75
2022/04/09 00:47:17;;;;;;;5.25;1.95;;;7.50;99.90;;;;;;5094185;28;20211;-75
2022/04/09 00:49:42;;;;;;;7.20;2.00;;;7.50;99.90;;;;;;5094081;28;20217;-75
2022/04/09 00:52:09;;;;;;;7.50;2.23;;;7.60;99.90;;;;;;5092900;28;20655;-75
2022/04/09 00:54:41;;;;;;;7.90;2.60;;;7.60;99.90;;;;;;5075809;28;20179;-75
2022/04/09 00:57:08;;;;;;;4.47;2.13;;;7.60;99.90;;;;;;5092880;28;20199;-75
2022/04/09 00:59:36;;;;;;;6.80;2.70;;;7.60;99.90;;;;;;5092793;28;20245;-75
2022/04/09 01:02:03;;;;;;;6.40;1.98;;;7.50;99.90;;;;;;5092424;28;20175;-75
2022/04/09 01:04:31;;;;;;;7.13;1.98;;;7.50;99.90;;;;;;5093619;28;20528;-75
2022/04/09 01:06:59;;;;;;;6.18;2.17;;;7.50;99.90;;;;;;5092774;28;20507;-75
2022/04/09 01:09:25;;;;;;;3.67;1.52;;;7.40;99.90;;;;;;5075447;28;20195;-75
2022/04/09 01:11:51;;;;;;;6.32;2.03;;;7.40;99.90;;;;;;5092516;28;20167;-75
2022/04/09 01:14:18;;;;;;;3.63;1.30;;;7.40;99.90;;;;;;5092648;28;20172;-75
2022/04/09 01:16:44;;;;;;;5.68;1.90;;;7.30;99.90;;;;;;5092472;28;20175;-75
2022/04/09 01:19:11;;;;;;;5.95;1.45;;;7.30;99.90;;;;;;5092045;28;20682;-74
2022/04/09 01:21:39;;;;;;;7.15;2.25;;;7.20;99.90;;;;;;5093537;28;20178;-75
2022/04/09 01:24:05;;;;;;;6.63;2.33;;;7.20;99.90;;;;;;5092399;28;20270;-75
2022/04/09 01:26:34;;;;;;;7.13;2.13;;;7.10;99.90;;;;;;5092092;28;20178;-75
2022/04/09 01:29:03;;;;;;;4.07;1.48;;;7.10;99.90;;;;;;5091729;28;20167;-75
2022/04/09 01:31:28;;;;;;;5.87;1.80;;;7.10;99.90;;;;;;5091937;28;20627;-75
2022/04/09 01:33:55;;;;;;;6.75;2.05;;;7.00;99.90;;;;;;5093417;28;21184;-75
2022/04/09 01:36:21;;;;;;;7.03;1.73;;;7.00;99.90;;;;;;5091911;28;20178;-75
2022/04/09 01:38:46;;;;;;;4.57;1.17;;;7.00;99.90;;;;;;5074662;28;20199;-75
2022/04/09 01:41:12;;;;;;;6.47;1.20;;;7.00;99.90;;;;;;5091711;28;20195;-75
2022/04/09 01:43:58;;;;;;;5.00;1.70;;;7.10;99.90;;;;;;5092677;28;20295;-76
2022/04/09 01:46:24;;;;;;;9.37;1.63;;;7.10;99.90;;;;;;5093212;28;20639;-75
2022/04/09 01:48:50;;;;;;;5.00;1.20;;;7.10;99.90;;;;;;5091692;28;20568;-75
2022/04/09 01:51:16;;;;;;;4.70;1.70;;;7.10;99.90;;;;;;5074989;28;20238;-75
2022/04/09 01:53:42;;;;;;;6.70;1.70;;;7.10;99.90;;;;;;5098042;28;20205;-75
2022/04/09 01:56:08;;;;;;;8.63;2.17;;;7.10;99.90;;;;;;5098594;28;20164;-75
2022/04/09 01:58:37;;;;;;;7.30;1.55;;;7.10;99.90;;;;;;5096157;28;20196;-75
2022/04/09 02:01:04;;;;;;;10.05;2.35;;;7.00;99.90;;;;;;5094919;28;20175;-75
2022/04/09 02:03:31;;;;;;;5.57;2.03;;;7.00;99.90;;;;;;5095881;28;20179;-75
2022/04/09 02:05:57;;;;;;;5.32;2.00;;;7.00;99.90;;;;;;5077604;28;20647;-75
2022/04/09 02:08:25;;;;;;;4.30;2.10;;;7.00;99.90;;;;;;5094053;28;20925;-75
2022/04/09 02:10:50;;;;;;;6.85;2.13;;;7.10;99.90;;;;;;5095108;28;20168;-75
2022/04/09 02:13:19;;;;;;;7.10;2.43;;;7.10;99.90;;;;;;5093004;28;20199;-75
2022/04/09 02:15:46;;;;;;;6.70;1.70;;;7.10;99.90;;;;;;5091707;28;20711;-75
2022/04/09 02:18:12;;;;;;;8.60;1.93;;;7.20;99.90;;;;;;5093285;28;20282;-74
2022/04/09 02:20:37;;;;;;;4.90;1.50;;;7.20;99.90;;;;;;5093829;28;20607;-74
2022/04/09 02:23:05;;;;;;;9.05;2.03;;;7.20;99.90;;;;;;5075696;28;20674;-75
2022/04/09 02:25:31;;;;;;;5.47;1.83;;;7.30;99.90;;;;;;5092250;28;20199;-75
2022/04/09 02:27:56;;;;;;;7.43;1.57;;;7.30;99.90;;;;;;5091378;28;20562;-75
2022/04/09 02:30:24;;;;;;;4.43;1.50;;;7.40;99.90;;;;;;5091026;28;20167;-75
2022/04/09 02:32:55;;;;;;;9.25;1.80;;;7.40;99.90;;;;;;5090846;28;20264;-75
2022/04/09 02:35:25;;;;;;;5.18;1.90;;;7.40;99.90;;;;;;5090869;28;20209;-75
2022/04/09 02:37:51;;;;;;;6.45;1.60;;;7.40;99.90;;;;;;5073694;28;20195;-75
2022/04/09 02:40:18;;;;;;;4.57;1.35;;;7.40;99.90;;;;;;5090684;28;20167;-75
2022/04/09 02:42:44;;;;;;;7.07;1.87;;;7.30;99.90;;;;;;5114190;22;20215;-76
2022/04/09 02:45:11;;;;;;;7.55;1.75;;;7.30;99.90;;;;;;5068142;28;20196;-76
2022/04/09 02:47:38;;;;;;;7.10;2.10;;;7.30;99.90;;;;;;5070376;28;20173;-76
2022/04/09 02:50:10;;;;;;;11.70;2.10;;;7.20;99.90;;;;;;5054543;28;20210;-76
2022/04/09 02:52:38;;;;;;;5.05;1.75;;;7.20;99.90;;;;;;5053798;28;20195;-77
2022/04/09 02:55:08;;;;;;;4.88;1.85;;;7.20;99.90;;;;;;5034351;28;20169;-77
2022/04/09 02:57:36;;;;;;;7.38;1.83;;;7.20;99.90;;;;;;5033604;28;20169;-76
2022/04/09 03:00:08;;;;;;;8.82;2.22;;;7.20;99.90;;;;;;5050282;28;20169;-76
2022/04/09 03:02:37;;;;;;;5.70;1.73;;;7.20;99.90;;;;;;5050462;28;20234;-77
2022/04/09 03:05:05;;;;;;;5.15;1.55;;;7.10;99.90;;;;;;5033697;28;20231;-76
2022/04/09 03:07:31;;;;;;;8.30;2.42;;;7.10;99.90;;;;;;5049994;28;20169;-76
2022/04/09 03:09:57;;;;;;;8.55;1.90;;;7.10;99.90;;;;;;5033445;28;20169;-77
2022/04/09 03:12:23;;;;;;;10.05;2.10;;;7.10;99.90;;;;;;5050470;28;20510;-76
2022/04/09 03:14:49;;;;;;;10.93;2.07;;;7.10;99.90;;;;;;5051081;28;20284;-77
2022/04/09 03:17:16;;;;;;;5.57;3.42;;;7.10;99.90;;;;;;5050098;28;20169;-76
2022/04/09 03:19:41;;;;;;;14.50;2.33;;;7.10;99.90;;;;;;5050095;28;20196;-77
2022/04/09 03:22:09;;;;;;;6.05;2.00;;;7.10;99.90;;;;;;5017417;28;20568;-76
2022/04/09 03:24:38;;;;;;;7.25;2.55;;;7.10;99.90;;;;;;5050086;28;20205;-76
2022/04/09 03:27:05;;;;;;;5.32;2.05;;;7.10;99.90;;;;;;5052812;28;20214;-77
2022/04/09 03:29:32;;;;;;;8.07;2.70;;;7.20;99.90;;;;;;5054295;28;20180;-76
2022/04/09 03:31:59;;;;;;;6.13;2.08;;;7.20;99.90;;;;;;5054185;28;20169;-76
2022/04/09 03:34:27;;;;;;;7.75;1.70;;;7.30;99.90;;;;;;5037860;28;20188;-76
2022/04/09 03:36:53;;;;;;;9.68;2.45;;;7.30;99.90;;;;;;5053616;28;20169;-76
2022/04/09 03:39:19;;;;;;;8.57;2.47;;;7.40;99.90;;;;;;5053798;28;20207;-76
2022/04/09 03:41:45;;;;;;;7.47;2.20;;;7.40;99.90;;;;;;5054128;28;20921;-76
2022/04/09 03:44:11;;;;;;;5.13;2.03;;;7.40;99.90;;;;;;5053846;28;20200;-76
2022/04/09 03:46:43;;;;;;;6.65;2.30;;;7.40;99.90;;;;;;5054058;28;20172;-76
2022/04/09 03:49:15;;;;;;;5.53;1.80;;;7.50;99.90;;;;;;5053879;28;20180;-76
2022/04/09 03:51:42;;;;;;;5.28;2.00;;;7.50;99.90;;;;;;5037384;28;20178;-76
2022/04/09 03:54:09;;;;;;;12.68;2.65;;;7.50;99.90;;;;;;5053745;28;20279;-76
2022/04/09 03:56:35;;;;;;;8.32;2.00;;;7.50;99.90;;;;;;5037268;28;20169;-76
2022/04/09 03:59:02;;;;;;;6.60;2.30;;;7.60;99.90;;;;;;5037081;28;20204;-76
2022/04/09 04:01:28;;;;;;;5.40;1.67;;;7.60;99.90;;;;;;5053646;28;20176;-76
2022/04/09 04:03:57;;;;;;;15.25;2.78;;;7.60;99.90;;;;;;5053713;28;20185;-76
2022/04/09 04:06:25;;;;;;;11.15;2.53;;;7.70;99.90;;;;;;5020792;28;20177;-76
2022/04/09 04:08:55;;;;;;;7.78;2.35;;;7.70;99.90;;;;;;5053475;28;20546;-76
2022/04/09 04:11:23;;;;;;;8.02;2.20;;;7.70;99.90;;;;;;5037126;28;20560;-76
2022/04/09 04:13:50;;;;;;;8.93;2.47;;;7.70;99.90;;;;;;5053333;28;20258;-76
2022/04/09 04:16:16;;;;;;;10.00;2.17;;;7.70;99.90;;;;;;5053614;28;20287;-76
2022/04/09 04:18:44;;;;;;;5.88;1.60;;;7.70;99.90;;;;;;5036634;28;20874;-76
2022/04/09 04:21:10;;;;;;;9.15;2.17;;;7.70;99.90;;;;;;5053317;28;20528;-76
2022/04/09 04:23:38;;;;;;;9.02;3.30;;;7.70;99.90;;;;;;5053401;28;20184;-76
2022/04/09 04:26:13;;;;;;;14.18;2.40;;;7.70;99.90;;;;;;5038045;28;20173;-76
2022/04/09 04:28:39;;;;;;;9.23;2.50;;;7.80;99.90;;;;;;5052996;28;20542;-76
2022/04/09 04:31:06;;;;;;;10.25;2.63;;;7.80;99.90;;;;;;5053067;28;20248;-76
2022/04/09 04:33:33;;;;;;;9.02;2.08;;;7.80;99.90;;;;;;5036528;28;20231;-76
2022/04/09 04:35:59;;;;;;;9.68;2.28;;;7.80;99.90;;;;;;5053007;28;20283;-76
2022/04/09 04:38:30;;;;;;;11.15;2.00;;;7.80;99.90;;;;;;5051595;28;20265;-76
2022/04/09 04:40:59;;;;;;;8.60;1.98;;;7.80;99.90;;;;;;5052894;28;20177;-76
2022/04/09 04:43:26;;;;;;;11.82;2.63;;;7.80;99.90;;;;;;5052163;28;20209;-77
2022/04/09 04:45:53;;;;;;;8.02;2.15;;;7.80;99.90;;;;;;5052084;28;20227;-76
2022/04/09 04:48:22;;;;;;;10.33;4.20;;;7.80;99.90;;;;;;5052895;28;20165;-76
2022/04/09 04:50:49;;;;;;;11.32;2.15;;;7.80;99.90;;;;;;5052620;28;20737;-76
2022/04/09 04:53:15;;;;;;;9.37;3.27;;;7.80;99.90;;;;;;5052971;28;20204;-76
2022/04/09 04:55:47;;;;;;;9.13;2.13;;;7.80;99.90;;;;;;5052630;28;20571;-76
2022/04/09 04:58:18;;;;;;;5.15;1.67;;;7.80;99.90;;;;;;5052415;28;20192;-76
2022/04/09 05:00:51;;;;;;;8.98;2.17;;;7.70;99.90;;;;;;5052576;28;20169;-76
2022/04/09 05:03:18;;;;;;;11.80;1.77;;;7.70;99.90;;;;;;5052633;28;20558;-76
2022/04/09 05:05:55;;;;;;;4.72;1.60;;;7.70;99.90;;;;;;5035972;28;20180;-76
2022/04/09 05:08:21;;;;;;;9.95;1.73;;;7.70;99.90;;;;;;5052330;28;20315;-76
2022/04/09 05:10:47;;;;;;;6.32;1.85;;;7.70;99.90;;;;;;5052395;28;20214;-76
2022/04/09 05:13:16;;;;;;;8.68;1.73;;;7.70;99.90;;;;;;5052399;28;20276;-77
2022/04/09 05:15:42;;;;;;;6.95;2.17;;;7.70;99.90;;;;;;5052436;28;20264;-76
2022/04/09 05:18:09;;;;;;;5.72;1.75;;;7.70;99.90;;;;;;5051920;28;20196;-77
2022/04/09 05:20:36;;;;;;;6.18;1.55;;;7.80;99.90;;;;;;5049842;28;20206;-76
2022/04/09 05:23:06;;;;;;;9.15;2.60;;;7.70;99.90;;;;;;5068911;28;20633;-76
2022/04/09 05:25:33;;;;;;;8.10;2.03;;;7.70;99.90;;;;;;5052238;28;20173;-76
2022/04/09 05:28:05;;;;;;;7.60;1.55;;;7.70;99.90;;;;;;5052027;28;20629;-76
2022/04/09 05:30:36;;;;;;;5.88;1.85;;;7.70;99.90;;;;;;5052859;28;20537;-76
2022/04/09 05:33:03;;;;;;;10.77;2.28;;;7.70;99.90;;;;;;5052703;28;20192;-77
2022/04/09 05:35:30;;;;;;;14.90;2.55;;;7.80;99.90;;;;;;5052831;28;20179;-76
2022/04/09 05:37:56;;;;;;;8.75;1.80;;;7.80;99.90;;;;;;5052231;28;20197;-76
2022/04/09 05:40:30;;;;;;;6.90;1.40;;;7.80;99.90;;;;;;5035404;28;20172;-76
2022/04/09 05:43:00;;;;;;;6.13;1.55;;;7.80;99.90;;;;;;5052351;28;20188;-76
2022/04/09 05:45:26;;;;;;;9.35;1.80;;;7.80;99.90;;;;;;5052005;28;20162;-76
2022/04/09 05:47:52;;;;;;;9.32;1.95;;;7.80;99.90;;;;;;5052933;28;20579;-76
2022/04/09 05:50:24;;;;;;;9.77;2.35;;;7.80;99.90;;;;;;5019513;28;20217;-76
2022/04/09 05:52:50;;;;;;;9.50;2.87;;;7.80;99.90;;;;;;5035115;28;20176;-76
2022/04/09 05:55:17;;;;;;;8.13;1.60;;;7.80;99.90;;;;;;5035157;28;20176;-76
2022/04/09 05:57:43;;;;;;;10.18;2.67;;;7.80;99.90;;;;;;5034840;28;20177;-76
2022/04/09 06:00:11;;;;;;;8.07;2.45;;;7.90;99.90;;;;;;5051434;28;20531;-76
2022/04/09 06:03:05;;;;;;;7.15;2.47;;;7.90;99.90;;;;;;5050696;28;20246;-76
2022/04/09 06:05:35;;;;;;;11.43;2.47;;;8.00;99.90;;;;;;5051454;28;20191;-76
2022/04/09 06:08:06;;;;;;;7.82;2.55;;;8.00;99.90;;;;;;5051247;28;20173;-76
2022/04/09 06:10:32;;;;;;;11.38;3.15;;;8.00;99.90;;;;;;5034986;28;20181;-76
2022/04/09 06:12:58;;;;;;;7.23;2.13;;;8.00;99.90;;;;;;5051349;28;20271;-76
2022/04/09 06:15:26;;;;;;;7.85;2.30;;;8.00;99.90;;;;;;5051457;28;20614;-76
2022/04/09 06:18:05;;;;;;;7.93;2.03;;;8.00;99.90;;;;;;5035320;28;20235;-76
2022/04/09 06:20:31;;;;;;;8.85;2.78;;;8.00;99.90;;;;;;5051135;28;20202;-78
2022/04/09 06:22:56;;;;;;;9.73;2.80;;;8.10;99.90;;;;;;5051315;28;20188;-77
2022/04/09 06:25:22;;;;;;;8.87;2.13;;;8.10;99.90;;;;;;5034557;28;20625;-77
2022/04/09 06:27:49;;;;;;;8.25;2.00;;;8.20;99.90;;;;;;5051094;28;20245;-77
2022/04/09 06:30:15;;;;;;;10.40;2.78;;;8.30;99.90;;;;;;5051173;28;20181;-76
2022/04/09 06:32:48;;;;;;;8.07;2.70;;;8.40;99.90;;;;;;5051238;28;20524;-76
2022/04/09 06:35:14;;;;;;;11.27;2.72;;;8.50;99.90;;;;;;5051136;28;20169;-76
2022/04/09 06:37:40;;;;;;;10.07;2.25;;;8.60;99.90;;;;;;5050703;28;20165;-77
2022/04/09 06:40:09;;;;;;;10.60;2.03;;;8.80;99.90;;;;;;5051012;28;20207;-77
2022/04/09 06:42:36;;;;;;;8.35;1.98;;;9.00;99.90;;;;;;5050874;28;20670;-77
2022/04/09 06:45:20;;;;;;;9.52;2.40;;;9.30;99.90;;;;;;5052281;28;20165;-77
2022/04/09 06:48:15;;;;;;;6.78;2.75;;;9.90;99.90;;;;;;5050971;28;20176;-77
2022/04/09 06:50:51;;;;;;;10.98;2.40;;;10.80;99.90;;;;;;5034001;28;20790;-77
2022/04/09 06:53:18;;;;;;;9.88;2.35;;;11.70;99.90;;;;;;5050872;28;20188;-77
2022/04/09 06:55:44;;;;;;;10.13;2.43;;;12.60;99.90;;;;;;5050911;28;20205;-77
2022/04/09 06:58:10;;;;;;;8.63;2.13;;;13.40;99.90;;;;;;5050369;28;20626;-77
2022/04/09 07:00:37;;;;;;;7.00;2.57;;;14.20;99.90;;;;;;5049880;28;20924;-77
2022/04/09 07:03:04;;;;;;;5.60;2.27;;;15.00;99.90;;;;;;5050427;28;20615;-77
2022/04/09 07:05:30;;;;;;;9.60;2.10;;;15.70;99.90;;;;;;5051672;28;20567;-77
2022/04/09 07:07:55;;;;;;;6.10;2.10;;;16.50;99.90;;;;;;5051386;28;20921;-77
2022/04/09 07:10:21;;;;;;;5.77;1.63;;;16.90;99.90;;;;;;5050434;28;20246;-78
2022/04/09 07:12:47;;;;;;;5.10;1.70;;;17.20;99.90;;;;;;5050182;28;20540;-78
2022/04/09 07:15:13;;;;;;;5.83;2.60;;;17.70;99.90;;;;;;5050217;28;20284;-76
2022/04/09 07:17:41;;;;;;;11.60;3.03;;;17.90;99.90;;;;;;5051319;28;20228;-76
2022/04/09 07:20:08;;;;;;;8.90;2.30;;;17.50;99.90;;;;;;5051249;28;20578;-77
2022/04/09 07:22:36;;;;;;;7.47;1.80;;;17.40;99.90;;;;;;5051533;28;20959;-77
2022/04/09 07:25:03;;;;;;;4.97;1.80;;;17.70;99.90;;;;;;5050396;28;20661;-76
2022/04/09 07:27:37;;;;;;;4.83;1.40;;;17.70;99.90;;;;;;5051262;28;20566;-77
2022/04/09 07:30:11;;;;;;;7.53;1.23;;;17.40;99.90;;;;;;5051187;28;20574;-76
2022/04/09 07:32:37;;;;;;;5.63;1.90;;;17.40;99.90;;;;;;5051423;28;20585;-77
2022/04/09 07:35:03;;;;;;;5.77;1.40;;;17.50;99.90;;;;;;5051317;28;21161;-76
2022/04/09 07:37:30;;;;;;;6.10;2.10;;;18.00;99.90;;;;;;5049758;28;20161;-76
2022/04/09 07:39:55;;;;;;;4.63;1.53;;;18.50;99.90;;;;;;5051267;28;20641;-76
2022/04/09 07:42:21;;;;;;;9.30;2.17;;;19.00;99.90;;;;;;5051501;28;20580;-76
2022/04/09 07:44:47;;;;;;;3.47;1.60;;;19.20;99.90;;;;;;5051047;28;20232;-76
2022/04/09 07:47:14;;;;;;;8.17;1.57;;;19.60;99.90;;;;;;5049728;28;20674;-76
2022/04/09 07:49:40;;;;;;;6.53;1.87;;;20.10;99.90;;;;;;5050985;28;20984;-76
2022/04/09 07:52:06;;;;;;;6.40;1.43;;;20.60;99.90;;;;;;5050353;28;20610;-77
2022/04/09 07:54:32;;;;;;;5.70;1.33;;;21.20;99.90;;;;;;5051491;28;20219;-76
2022/04/09 07:56:58;;;;;;;8.03;1.70;;;21.60;99.90;;;;;;5051113;28;20560;-76
2022/04/09 07:59:23;;;;;;;5.57;1.67;;;21.60;97.20;;;;;;5050846;28;20622;-77
2022/04/09 08:01:49;;;;;;;9.53;2.30;;;21.70;97.00;;;;;;5049566;28;20231;-75
2022/04/09 08:04:15;;;;;;;9.30;2.07;;;21.70;94.00;;;;;;5050993;28;20189;-78
2022/04/09 08:06:41;;;;;;;8.40;2.03;;;21.20;91.40;;;;;;5050847;28;20161;-77
2022/04/09 08:09:07;;;;;;;6.33;1.90;;;20.70;91.70;;;;;;5050703;28;21029;-77
2022/04/09 08:11:32;;;;;;;5.27;1.37;;;20.40;91.90;;;;;;5049877;28;20276;-77
2022/04/09 08:13:58;;;;;;;5.60;1.80;;;19.90;91.10;;;;;;5054744;28;20200;-77
2022/04/09 08:16:25;;;;;;;10.93;2.40;;;19.40;90.50;;;;;;5054678;28;20180;-77
2022/04/09 08:18:51;;;;;;;5.10;1.80;;;19.00;90.90;;;;;;5054394;28;20610;-77
2022/04/09 08:21:18;;;;;;;6.20;1.60;;;18.50;90.10;;;;;;5054513;28;20583;-76
2022/04/09 08:23:46;;;;;;;4.87;1.50;;;17.90;88.10;;;;;;5054654;28;20599;-76
2022/04/09 08:26:12;;;;;;;4.53;1.90;;;17.30;89.00;;;;;;5053003;28;20959;-77
2022/04/09 08:28:37;;;;;;;6.13;2.17;;;16.90;89.70;;;;;;5054570;28;20576;-77
2022/04/09 08:31:03;;;;;;;11.73;1.93;;;16.50;89.80;;;;;;5054423;28;20260;-77
2022/04/09 08:33:29;;;;;;;8.53;2.17;;;16.20;90.80;;;;;;5054216;28;20208;-77
2022/04/09 08:35:55;;;;;;;6.30;1.90;;;16.00;91.10;;;;;;5054387;28;20624;-77
2022/04/09 08:38:20;;;;;;;11.17;2.30;;;15.70;90.90;;;;;;5054380;28;20725;-77
2022/04/09 08:40:47;;;;;;;5.27;1.93;;;15.90;93.50;;;;;;5053060;28;20176;-76
2022/04/09 08:43:13;;;;;;;6.93;1.93;;;16.20;93.50;;;;;;5054317;28;20195;-77
2022/04/09 08:45:43;;;;;;;6.97;1.63;;;16.40;93.50;;;;;;5078357;22;20581;-78
2022/04/09 08:48:10;;;;;;;9.30;2.10;;;16.90;95.20;;;;;;5068378;28;21010;-78
2022/04/09 08:50:36;;;;;;;5.60;1.60;;;17.80;94.90;;;;;;5053756;28;21096;-77
2022/04/09 08:53:06;;;;;;;4.93;1.70;;;18.20;94.70;;;;;;5053861;28;20573;-78
2022/04/09 08:55:35;;;;;;;6.33;1.97;;;18.80;93.90;;;;;;5054268;28;20650;-79
2022/04/09 08:58:01;;;;;;;5.03;1.70;;;19.30;92.80;;;;;;5089179;28;20624;-79
2022/04/09 09:00:27;;;;;;;4.90;1.87;;;19.60;92.30;;;;;;5072302;28;20582;-79
2022/04/09 09:02:58;;;;;;;5.60;1.40;;;20.10;93.30;;;;;;5072749;28;21105;-79
2022/04/09 09:05:37;;;;;;;5.40;1.43;;;20.50;90.10;;;;;;5072562;28;20583;-79
2022/04/09 09:08:04;;;;;;;6.13;1.30;;;20.60;88.50;;;;;;5073630;28;20971;-79
2022/04/09 09:10:31;;;;;;;6.57;1.47;;;20.70;88.60;;;;;;5073507;28;20577;-79
2022/04/09 09:13:03;;;;;;;5.67;1.73;;;21.00;87.80;;;;;;5073501;28;20596;-79
2022/04/09 09:15:30;;;;;;;5.40;1.30;;;21.30;83.50;;;;;;5073490;28;20606;-79
2022/04/09 09:17:59;;;;;;;7.40;2.30;;;21.60;82.80;;;;;;5073255;28;21215;-79
2022/04/09 09:20:25;;;;;;;6.50;1.77;;;21.80;79.90;;;;;;5073356;28;20583;-79
2022/04/09 09:22:52;;;;;;;5.40;2.10;;;22.00;80.50;;;;;;5073406;28;20596;-79
2022/04/09 09:25:18;;;;;;;6.17;2.00;;;22.30;80.50;;;;;;5071862;28;20664;-78
2022/04/09 09:27:55;;;;;;;7.63;1.60;;;22.70;72.20;;;;;;5071674;28;20607;-79
2022/04/09 09:30:20;;;;;;;6.27;2.00;;;22.70;73.20;;;;;;5072915;28;20574;-79
2022/04/09 09:33:05;;;;;;;4.40;1.60;;;22.90;73.30;;;;;;5088845;28;21125;-79
2022/04/09 09:35:51;;;;;;;6.70;1.70;;;22.60;67.90;;;;;;5072950;28;20647;-79
2022/04/09 09:38:22;;;;;;;5.43;1.70;;;22.00;63.80;;;;;;5088438;28;20645;-78
2022/04/09 09:40:48;;;;;;;6.40;2.03;;;21.30;63.20;;;;;;5073243;28;20562;-79
2022/04/09 09:43:19;;;;;;;7.57;2.17;;;20.60;63.80;;;;;;5071765;28;20932;-79
2022/04/09 09:45:46;;;;;;;5.40;2.43;;;20.00;64.30;;;;;;5073139;28;20559;-79
2022/04/09 09:48:19;;;;;;;3.10;1.10;;;19.30;63.50;;;;;;5055042;28;20697;-79
2022/04/09 09:50:45;;;;;;;6.80;1.47;;;18.70;62.90;;;;;;5088453;28;20563;-77
2022/04/09 09:53:10;;;;;;;4.33;1.20;;;18.20;64.50;;;;;;5088444;28;20581;-77
2022/04/09 09:55:42;;;;;;;5.27;1.63;;;17.80;64.60;;;;;;5072819;28;21143;-77
2022/04/09 09:58:12;;;;;;;5.40;1.63;;;17.50;65.60;;;;;;5054690;28;20196;-77
2022/04/09 10:00:38;;;;;;;7.47;1.40;;;17.20;66.20;;;;;;5072690;28;20559;-74
2022/04/09 10:03:06;;;;;;;5.37;1.73;;;17.00;66.60;;;;;;5088031;28;20566;-74
2022/04/09 10:05:32;;;;;;;5.97;1.70;;;17.00;67.00;;;;;;5072228;28;20570;-74
2022/04/09 10:07:59;;;;;;;6.50;1.60;;;17.00;67.60;;;;;;5072053;28;20566;-74
2022/04/09 10:10:27;;;;;;;6.20;1.73;;;17.20;70.10;;;;;;5072041;28;20554;-74
2022/04/09 10:12:56;;;;;;;7.70;2.00;;;17.50;69.40;;;;;;5070932;28;20571;-75
2022/04/09 10:15:26;;;;;;;6.40;1.73;;;17.60;69.50;;;;;;5072410;28;20551;-75
2022/04/09 10:17:56;;;;;;;5.80;1.70;;;17.70;67.90;;;;;;5087548;28;20598;-75
2022/04/09 10:20:25;;;;;;;4.93;1.70;;;17.90;70.20;;;;;;5071970;28;20575;-75
2022/04/09 10:22:55;;;;;;;7.33;2.20;;;18.10;68.50;;;;;;5072101;28;20591;-75
2022/04/09 10:25:25;;;;;;;5.70;1.60;;;18.20;68.00;;;;;;5072145;28;20658;-75
2022/04/09 10:27:54;;;;;;;5.53;1.97;;;18.20;68.00;;;;;;5071571;28;21064;-74
2022/04/09 10:30:22;;;;;;;5.10;1.30;;;18.30;68.90;;;;;;5072011;28;20624;-75
2022/04/09 10:32:51;;;;;;;8.23;1.90;;;18.50;68.70;;;;;;5071931;28;20673;-74
2022/04/09 10:35:40;;;;;;;5.90;1.60;;;18.30;66.00;;;;;;5069785;28;20656;-75
2022/04/09 10:38:14;;;;;;;3.87;1.43;;;18.00;63.10;;;;;;5071540;28;20717;-75
2022/04/09 10:40:43;;;;;;;4.27;1.50;;;17.60;62.30;;;;;;5071895;28;20669;-75
2022/04/09 10:43:30;;;;;;;5.63;2.80;;;17.50;65.40;;;;;;5071687;28;20590;-75
2022/04/09 10:46:10;;;;;;;5.50;1.30;;;17.70;68.80;;;;;;5069943;28;20618;-75
2022/04/09 10:48:36;;;;;;;4.47;1.77;;;18.10;71.90;;;;;;5071429;28;21169;-75
2022/04/09 10:51:08;;;;;;;4.03;1.77;;;18.70;69.30;;;;;;5070171;28;20996;-75
2022/04/09 10:53:39;;;;;;;5.33;1.30;;;19.10;70.60;;;;;;5070286;28;20737;-75
2022/04/09 10:56:21;;;;;;;4.13;1.47;;;19.50;67.20;;;;;;5071567;28;20638;-74
2022/04/09 10:59:08;;;;;;;4.00;1.40;;;19.70;64.90;;;;;;5071303;28;20622;-74
2022/04/09 11:01:46;;;;;;;3.60;1.43;;;19.90;65.20;;;;;;5071014;28;20604;-75
2022/04/09 11:04:45;;;;;;;4.60;1.23;;;20.00;63.90;;;;;;5071319;28;21132;-74
2022/04/09 11:07:12;;;;;;;3.87;1.30;;;19.80;60.60;;;;;;5070073;28;20593;-74
2022/04/09 11:10:01;;;;;;;5.10;1.60;;;19.60;60.30;;;;;;5071390;28;20967;-74
2022/04/09 11:12:39;;;;;;;4.30;1.60;;;19.50;61.30;;;;;;5071700;28;20659;-74
2022/04/09 11:15:09;;;;;;;2.03;1.10;;;19.60;61.70;;;;;;5071754;28;20577;-75
2022/04/09 11:17:39;;;;;;;5.20;2.00;;;19.80;62.10;;;;;;5069958;28;20605;-75
2022/04/09 11:20:11;;;;;;;5.07;2.17;;;19.80;60.50;;;;;;5071239;28;21201;-74
2022/04/09 11:22:47;;;;;;;5.63;1.83;;;19.70;59.30;;;;;;5071577;28;20958;-74
2022/04/09 11:25:30;;;;;;;5.53;2.13;;;19.60;59.50;;;;;;5071790;28;20683;-73
2022/04/09 11:28:14;;;;;;;11.00;2.33;;;19.50;59.30;;;;;;5070182;28;20575;-75
2022/04/09 11:31:00;;;;;;;4.13;1.50;;;19.60;59.20;;;;;;5071864;28;20919;-74
2022/04/09 11:33:27;;;;;;;3.77;1.67;;;19.80;60.50;;;;;;5071225;28;21161;-75
2022/04/09 11:35:53;;;;;;;3.60;1.40;;;20.10;62.40;;;;;;5071984;28;20697;-74
2022/04/09 11:38:22;;;;;;;3.63;1.13;;;20.50;63.60;;;;;;5070536;28;21041;-74
2022/04/09 11:40:48;;;;;;;2.53;1.27;;;20.80;63.40;;;;;;5070542;28;20582;-74
2022/04/09 11:43:15;;;;;;;3.97;1.40;;;21.10;61.10;;;;;;5071320;28;20562;-73
2022/04/09 11:45:42;;;;;;;3.23;1.53;;;21.20;60.00;;;;;;5071858;28;20310;-73
2022/04/09 11:48:25;;;;;;;2.83;0.93;;;21.00;57.70;;;;;;5074593;28;20582;-73
2022/04/09 11:50:53;;;;;;;2.40;1.00;;;20.50;55.80;;;;;;5075836;28;21330;-73
2022/04/09 11:53:23;;;;;;;1.40;0.70;;;19.90;54.20;;;;;;5075673;28;20570;-75
2022/04/09 11:55:57;;;;;;;2.20;0.80;;;19.30;53.70;;;;;;5075159;28;20578;-73
2022/04/09 11:58:30;;;;;;;6.00;1.20;;;18.90;54.30;;;;;;5074450;28;20616;-73
2022/04/09 12:00:57;;;;;;;2.63;0.80;;;18.50;55.70;;;;;;5073401;28;21205;-74
2022/04/09 12:03:23;;;;;;;4.90;1.20;;;18.10;55.70;;;;;;5073472;28;20586;-74
2022/04/09 12:05:51;;;;;;;4.43;2.50;;;17.70;55.90;;;;;;5056683;28;20578;-74
2022/04/09 12:08:23;;;;;;;3.60;1.60;;;17.20;55.80;;;;;;5072968;28;20640;-75
2022/04/09 12:11:13;;;;;;;3.17;1.50;;;16.70;55.60;;;;;;5074459;28;20586;-73
2022/04/09 12:13:39;;;;;;;6.90;1.80;;;16.20;56.20;;;;;;5064209;28;20634;-74
2022/04/09 12:16:10;;;;;;;5.50;1.73;;;15.80;56.70;;;;;;5074401;28;20978;-74
2022/04/09 12:18:37;;;;;;;3.53;1.40;;;15.60;57.70;;;;;;5074086;28;20637;-74
2022/04/09 12:21:23;;;;;;;2.83;1.30;;;15.60;58.80;;;;;;5074366;28;20948;-74
2022/04/09 12:24:00;;;;;;;6.23;1.30;;;15.70;59.70;;;;;;5074372;28;20663;-74
2022/04/09 12:26:27;;;;;;;2.60;1.27;;;16.00;62.10;;;;;;5074223;28;20598;-74
2022/04/09 12:29:08;;;;;;;2.37;1.00;;;16.40;64.30;;;;;;5072828;28;20624;-74
2022/04/09 12:31:35;;;;;;;6.80;1.00;;;16.80;64.00;;;;;;5073941;28;20606;-74
2022/04/09 12:34:02;;;;;;;3.40;1.47;;;17.30;65.40;;;;;;5074159;28;20706;-74
2022/04/09 12:36:27;;;;;;;3.47;1.00;;;17.70;64.20;;;;;;5073908;28;20625;-73
2022/04/09 12:38:53;;;;;;;3.00;1.17;;;17.80;63.00;;;;;;5089364;28;20737;-73
2022/04/09 12:41:19;;;;;;;2.13;1.00;;;17.90;61.70;;;;;;5073858;28;20268;-74
2022/04/09 12:43:47;;;;;;;4.73;1.97;;;17.80;60.00;;;;;;5072485;28;20702;-74
2022/04/09 12:46:15;;;;;;;3.10;2.13;;;17.70;58.80;;;;;;5073607;28;20681;-74
2022/04/09 12:48:46;;;;;;;5.80;2.80;;;17.50;58.10;;;;;;5072391;28;20563;-74
2022/04/09 12:51:20;;;;;;;5.87;3.80;;;17.30;57.50;;;;;;5072425;28;20976;-74
2022/04/09 12:53:51;;;;;;;8.03;3.30;;;17.10;58.00;;;;;;5073676;28;21303;-74
2022/04/09 12:56:17;;;;;;;3.87;2.30;;;17.00;59.00;;;;;;5073378;28;21218;-74
2022/04/09 12:58:45;;;;;;;6.10;1.83;;;17.00;59.70;;;;;;5072214;28;20667;-74